sensor_id;sensor_type;location;lat;lon;timestamp;temperature;humidity
782;DHT22;374;52.568;13.402;2022-09-29T00:01:42;11.00;99.90
782;DHT22;374;52.568;13.402;2022-09-29T00:04:07;11.00;99.90
782;DHT22;374;52.568;13.402;2022-09-29T00:06:33;10.90;99.90
782;DHT22;374;52.568;13.402;2022-09-29T00:08:59;10.90;99.90
782;DHT22;374;52.568;13.402;2022-09-29T00:11:24;10.90;99.90
782;DHT22;374;52.568;13.402;2022-09-29T00:13:50;10.90;99.90
782;DHT22;374;52.568;13.402;2022-09-29T00:16:16;10.80;99.90
782;DHT22;374;52.568;13.402;2022-09-29T00:18:41;10.80;99.90
782;DHT22;374;52.568;13.402;2022-09-29T00:21:09;10.80;99.90
782;DHT22;374;52.568;13.402;2022-09-29T00:23:36;10.80;99.90
782;DHT22;374;52.568;13.402;2022-09-29T00:26:19;10.80;99.90
782;DHT22;374;52.568;13.402;2022-09-29T00:28:47;10.70;99.90
782;DHT22;374;52.568;13.402;2022-09-29T00:31:14;10.70;99.90
782;DHT22;374;52.568;13.402;2022-09-29T00:33:40;10.70;99.90
782;DHT22;374;52.568;13.402;2022-09-29T00:36:11;10.70;99.90
782;DHT22;374;52.568;13.402;2022-09-29T00:38:36;10.70;99.90
782;DHT22;374;52.568;13.402;2022-09-29T00:41:03;10.70;99.90
782;DHT22;374;52.568;13.402;2022-09-29T00:43:51;10.70;99.90
782;DHT22;374;52.568;13.402;2022-09-29T00:52:18;10.60;99.90
782;DHT22;374;52.568;13.402;2022-09-29T00:54:54;10.60;99.90
782;DHT22;374;52.568;13.402;2022-09-29T00:57:25;10.60;99.90
782;DHT22;374;52.568;13.402;2022-09-29T01:00:06;10.50;99.90
782;DHT22;374;52.568;13.402;2022-09-29T01:02:36;10.50;99.90
782;DHT22;374;52.568;13.402;2022-09-29T01:05:07;10.50;99.90
782;DHT22;374;52.568;13.402;2022-09-29T01:07:34;10.50;99.90
782;DHT22;374;52.568;13.402;2022-09-29T01:09:59;10.50;99.90
782;DHT22;374;52.568;13.402;2022-09-29T01:12:25;10.40;99.90
782;DHT22;374;52.568;13.402;2022-09-29T01:14:52;10.40;99.90
782;DHT22;374;52.568;13.402;2022-09-29T01:17:20;10.40;99.90
782;DHT22;374;52.568;13.402;2022-09-29T01:20:03;10.40;99.90
782;DHT22;374;52.568;13.402;2022-09-29T01:25:29;10.30;99.90
782;DHT22;374;52.568;13.402;2022-09-29T01:41:50;10.30;99.90
782;DHT22;374;52.568;13.402;2022-09-29T01:44:27;10.30;99.90
782;DHT22;374;52.568;13.402;2022-09-29T01:49:25;10.30;99.90
782;DHT22;374;52.568;13.402;2022-09-29T01:52:07;10.30;99.90
782;DHT22;374;52.568;13.402;2022-09-29T01:55:04;10.30;99.90
782;DHT22;374;52.568;13.402;2022-09-29T01:57:41;10.30;99.90
782;DHT22;374;52.568;13.402;2022-09-29T02:00:15;10.20;99.90
782;DHT22;374;52.568;13.402;2022-09-29T02:02:46;10.30;99.90
782;DHT22;374;52.568;13.402;2022-09-29T02:05:19;10.20;99.90
782;DHT22;374;52.568;13.402;2022-09-29T02:07:47;10.20;99.90
782;DHT22;374;52.568;13.402;2022-09-29T02:10:20;10.20;99.90
782;DHT22;374;52.568;13.402;2022-09-29T02:12:48;10.20;99.90
782;DHT22;374;52.568;13.402;2022-09-29T02:15:20;10.20;99.90
782;DHT22;374;52.568;13.402;2022-09-29T02:17:47;10.10;99.90
782;DHT22;374;52.568;13.402;2022-09-29T02:20:14;10.10;99.90
782;DHT22;374;52.568;13.402;2022-09-29T02:22:40;10.10;99.90
782;DHT22;374;52.568;13.402;2022-09-29T02:25:09;10.10;99.90
782;DHT22;374;52.568;13.402;2022-09-29T02:27:35;10.20;99.90
782;DHT22;374;52.568;13.402;2022-09-29T02:30:01;10.10;99.90
782;DHT22;374;52.568;13.402;2022-09-29T02:32:28;10.10;99.90
782;DHT22;374;52.568;13.402;2022-09-29T02:34:55;10.10;99.90
782;DHT22;374;52.568;13.402;2022-09-29T02:37:31;10.10;99.90
782;DHT22;374;52.568;13.402;2022-09-29T02:40:27;10.10;99.90
782;DHT22;374;52.568;13.402;2022-09-29T02:45:58;10.20;99.90
782;DHT22;374;52.568;13.402;2022-09-29T02:49:05;10.20;99.90
782;DHT22;374;52.568;13.402;2022-09-29T02:51:39;10.20;99.90
782;DHT22;374;52.568;13.402;2022-09-29T02:54:21;10.20;99.90
782;DHT22;374;52.568;13.402;2022-09-29T03:02:15;10.20;99.90
782;DHT22;374;52.568;13.402;2022-09-29T03:04:47;10.20;99.90
782;DHT22;374;52.568;13.402;2022-09-29T03:07:12;10.30;99.90
782;DHT22;374;52.568;13.402;2022-09-29T03:09:38;10.30;99.90
782;DHT22;374;52.568;13.402;2022-09-29T03:12:04;10.30;99.90
782;DHT22;374;52.568;13.402;2022-09-29T03:14:29;10.30;99.90
782;DHT22;374;52.568;13.402;2022-09-29T03:16:54;10.30;99.90
782;DHT22;374;52.568;13.402;2022-09-29T03:19:20;10.30;99.90
782;DHT22;374;52.568;13.402;2022-09-29T03:21:45;10.30;99.90
782;DHT22;374;52.568;13.402;2022-09-29T03:24:11;10.30;99.90
782;DHT22;374;52.568;13.402;2022-09-29T03:26:36;10.40;99.90
782;DHT22;374;52.568;13.402;2022-09-29T03:29:02;10.40;99.90
782;DHT22;374;52.568;13.402;2022-09-29T03:31:27;10.40;99.90
782;DHT22;374;52.568;13.402;2022-09-29T03:33:53;10.40;99.90
782;DHT22;374;52.568;13.402;2022-09-29T03:36:18;10.40;99.90
782;DHT22;374;52.568;13.402;2022-09-29T03:38:44;10.40;99.90
782;DHT22;374;52.568;13.402;2022-09-29T03:41:11;10.40;99.90
782;DHT22;374;52.568;13.402;2022-09-29T03:43:36;10.40;99.90
782;DHT22;374;52.568;13.402;2022-09-29T03:46:02;10.40;99.90
782;DHT22;374;52.568;13.402;2022-09-29T03:48:30;10.40;99.90
782;DHT22;374;52.568;13.402;2022-09-29T03:50:56;10.40;99.90
782;DHT22;374;52.568;13.402;2022-09-29T03:53:21;10.40;99.90
782;DHT22;374;52.568;13.402;2022-09-29T03:55:48;10.40;99.90
782;DHT22;374;52.568;13.402;2022-09-29T03:58:15;10.40;99.90
782;DHT22;374;52.568;13.402;2022-09-29T04:00:41;10.40;99.90
782;DHT22;374;52.568;13.402;2022-09-29T04:03:06;10.40;99.90
782;DHT22;374;52.568;13.402;2022-09-29T04:05:32;10.40;99.90
782;DHT22;374;52.568;13.402;2022-09-29T04:08:04;10.40;99.90
782;DHT22;374;52.568;13.402;2022-09-29T04:10:30;10.40;99.90
782;DHT22;374;52.568;13.402;2022-09-29T04:12:57;10.40;99.90
782;DHT22;374;52.568;13.402;2022-09-29T04:15:23;10.40;99.90
782;DHT22;374;52.568;13.402;2022-09-29T04:17:48;10.40;99.90
782;DHT22;374;52.568;13.402;2022-09-29T04:20:14;10.40;99.90
782;DHT22;374;52.568;13.402;2022-09-29T04:22:39;10.40;99.90
782;DHT22;374;52.568;13.402;2022-09-29T04:25:05;10.40;99.90
782;DHT22;374;52.568;13.402;2022-09-29T04:27:31;10.40;99.90
782;DHT22;374;52.568;13.402;2022-09-29T04:29:56;10.40;99.90
782;DHT22;374;52.568;13.402;2022-09-29T04:32:22;10.40;99.90
782;DHT22;374;52.568;13.402;2022-09-29T04:34:49;10.40;99.90
782;DHT22;374;52.568;13.402;2022-09-29T04:37:14;10.40;99.90
782;DHT22;374;52.568;13.402;2022-09-29T04:39:39;10.40;99.90
782;DHT22;374;52.568;13.402;2022-09-29T04:42:05;10.40;99.90
782;DHT22;374;52.568;13.402;2022-09-29T04:44:30;10.40;99.90
782;DHT22;374;52.568;13.402;2022-09-29T04:46:56;10.40;99.90
782;DHT22;374;52.568;13.402;2022-09-29T04:49:21;10.40;99.90
782;DHT22;374;52.568;13.402;2022-09-29T04:51:47;10.40;99.90
782;DHT22;374;52.568;13.402;2022-09-29T04:54:12;10.40;99.90
782;DHT22;374;52.568;13.402;2022-09-29T04:56:38;10.40;99.90
782;DHT22;374;52.568;13.402;2022-09-29T04:59:04;10.40;99.90
782;DHT22;374;52.568;13.402;2022-09-29T05:01:30;10.40;99.90
782;DHT22;374;52.568;13.402;2022-09-29T05:03:56;10.40;99.90
782;DHT22;374;52.568;13.402;2022-09-29T05:06:21;10.40;99.90
782;DHT22;374;52.568;13.402;2022-09-29T05:08:47;10.40;99.90
782;DHT22;374;52.568;13.402;2022-09-29T05:11:13;10.40;99.90
782;DHT22;374;52.568;13.402;2022-09-29T05:13:38;10.40;99.90
782;DHT22;374;52.568;13.402;2022-09-29T05:16:04;10.40;99.90
782;DHT22;374;52.568;13.402;2022-09-29T05:18:30;10.40;99.90
782;DHT22;374;52.568;13.402;2022-09-29T05:20:55;10.40;99.90
782;DHT22;374;52.568;13.402;2022-09-29T05:23:23;10.40;99.90
782;DHT22;374;52.568;13.402;2022-09-29T05:25:49;10.40;99.90
782;DHT22;374;52.568;13.402;2022-09-29T05:28:14;10.40;99.90
782;DHT22;374;52.568;13.402;2022-09-29T05:30:40;10.40;99.90
782;DHT22;374;52.568;13.402;2022-09-29T05:33:06;10.40;99.90
782;DHT22;374;52.568;13.402;2022-09-29T05:35:32;10.40;99.90
782;DHT22;374;52.568;13.402;2022-09-29T05:37:58;10.40;99.90
782;DHT22;374;52.568;13.402;2022-09-29T05:40:23;10.40;99.90
782;DHT22;374;52.568;13.402;2022-09-29T05:42:49;10.40;99.90
782;DHT22;374;52.568;13.402;2022-09-29T05:45:15;10.40;99.90
782;DHT22;374;52.568;13.402;2022-09-29T05:47:41;10.40;99.90
782;DHT22;374;52.568;13.402;2022-09-29T05:50:08;10.40;99.90
782;DHT22;374;52.568;13.402;2022-09-29T05:52:34;10.40;99.90
782;DHT22;374;52.568;13.402;2022-09-29T05:55:00;10.40;99.90
782;DHT22;374;52.568;13.402;2022-09-29T05:57:25;10.40;99.90
782;DHT22;374;52.568;13.402;2022-09-29T05:59:51;10.40;99.90
782;DHT22;374;52.568;13.402;2022-09-29T06:02:16;10.50;99.90
782;DHT22;374;52.568;13.402;2022-09-29T06:04:43;10.50;99.90
782;DHT22;374;52.568;13.402;2022-09-29T06:07:08;10.50;99.90
782;DHT22;374;52.568;13.402;2022-09-29T06:09:34;10.50;99.90
782;DHT22;374;52.568;13.402;2022-09-29T06:12:01;10.50;99.90
782;DHT22;374;52.568;13.402;2022-09-29T06:14:26;10.50;99.90
782;DHT22;374;52.568;13.402;2022-09-29T06:16:52;10.50;99.90
782;DHT22;374;52.568;13.402;2022-09-29T06:19:18;10.60;99.90
782;DHT22;374;52.568;13.402;2022-09-29T06:21:43;10.60;99.90
782;DHT22;374;52.568;13.402;2022-09-29T06:24:09;10.60;99.90
782;DHT22;374;52.568;13.402;2022-09-29T06:26:35;10.60;99.90
782;DHT22;374;52.568;13.402;2022-09-29T06:29:00;10.60;99.90
782;DHT22;374;52.568;13.402;2022-09-29T06:31:28;10.60;99.90
782;DHT22;374;52.568;13.402;2022-09-29T06:33:58;10.60;99.90
782;DHT22;374;52.568;13.402;2022-09-29T06:36:29;10.60;99.90
782;DHT22;374;52.568;13.402;2022-09-29T06:39:15;10.60;99.90
782;DHT22;374;52.568;13.402;2022-09-29T06:41:41;10.70;99.90
782;DHT22;374;52.568;13.402;2022-09-29T06:44:13;10.70;99.90
782;DHT22;374;52.568;13.402;2022-09-29T06:46:38;10.70;99.90
782;DHT22;374;52.568;13.402;2022-09-29T06:49:04;10.70;99.90
782;DHT22;374;52.568;13.402;2022-09-29T06:51:29;10.70;99.90
782;DHT22;374;52.568;13.402;2022-09-29T06:53:55;10.70;99.90
782;DHT22;374;52.568;13.402;2022-09-29T06:56:20;10.70;99.90
782;DHT22;374;52.568;13.402;2022-09-29T06:58:46;10.80;99.90
782;DHT22;374;52.568;13.402;2022-09-29T07:01:12;10.80;99.90
782;DHT22;374;52.568;13.402;2022-09-29T07:03:38;10.80;99.90
782;DHT22;374;52.568;13.402;2022-09-29T07:06:05;10.80;99.90
782;DHT22;374;52.568;13.402;2022-09-29T07:08:31;10.80;99.90
782;DHT22;374;52.568;13.402;2022-09-29T07:10:59;10.90;99.90
782;DHT22;374;52.568;13.402;2022-09-29T07:13:24;10.90;99.90
782;DHT22;374;52.568;13.402;2022-09-29T07:15:51;10.90;99.90
782;DHT22;374;52.568;13.402;2022-09-29T07:18:17;10.90;99.90
782;DHT22;374;52.568;13.402;2022-09-29T07:20:42;10.90;99.90
782;DHT22;374;52.568;13.402;2022-09-29T07:23:08;10.90;99.90
782;DHT22;374;52.568;13.402;2022-09-29T07:25:34;10.90;99.90
782;DHT22;374;52.568;13.402;2022-09-29T07:28:00;11.00;99.90
782;DHT22;374;52.568;13.402;2022-09-29T07:30:26;11.00;99.90
782;DHT22;374;52.568;13.402;2022-09-29T07:32:53;11.00;99.90
782;DHT22;374;52.568;13.402;2022-09-29T07:35:20;11.00;99.90
782;DHT22;374;52.568;13.402;2022-09-29T07:37:52;11.00;99.90
782;DHT22;374;52.568;13.402;2022-09-29T07:40:20;11.10;99.90
782;DHT22;374;52.568;13.402;2022-09-29T07:42:46;11.10;99.90
782;DHT22;374;52.568;13.402;2022-09-29T07:45:12;11.10;99.90
782;DHT22;374;52.568;13.402;2022-09-29T07:47:37;11.10;99.90
782;DHT22;374;52.568;13.402;2022-09-29T07:50:04;11.10;99.90
782;DHT22;374;52.568;13.402;2022-09-29T07:52:29;11.10;99.90
782;DHT22;374;52.568;13.402;2022-09-29T07:54:55;11.10;99.90
782;DHT22;374;52.568;13.402;2022-09-29T07:57:20;11.20;99.90
782;DHT22;374;52.568;13.402;2022-09-29T07:59:46;11.20;99.90
782;DHT22;374;52.568;13.402;2022-09-29T08:02:11;11.20;99.90
782;DHT22;374;52.568;13.402;2022-09-29T08:04:37;11.20;99.90
782;DHT22;374;52.568;13.402;2022-09-29T08:07:03;11.30;99.90
782;DHT22;374;52.568;13.402;2022-09-29T08:09:28;11.30;99.90
782;DHT22;374;52.568;13.402;2022-09-29T08:11:54;11.30;99.90
782;DHT22;374;52.568;13.402;2022-09-29T08:14:19;11.30;99.90
782;DHT22;374;52.568;13.402;2022-09-29T08:16:49;11.30;99.90
782;DHT22;374;52.568;13.402;2022-09-29T08:19:17;11.30;99.90
782;DHT22;374;52.568;13.402;2022-09-29T08:21:43;11.30;99.90
782;DHT22;374;52.568;13.402;2022-09-29T08:24:12;11.40;99.90
782;DHT22;374;52.568;13.402;2022-09-29T08:26:38;11.40;99.90
782;DHT22;374;52.568;13.402;2022-09-29T08:29:05;11.40;99.90
782;DHT22;374;52.568;13.402;2022-09-29T08:31:30;11.40;99.90
782;DHT22;374;52.568;13.402;2022-09-29T08:33:57;11.50;99.90
782;DHT22;374;52.568;13.402;2022-09-29T08:36:25;11.50;99.90
782;DHT22;374;52.568;13.402;2022-09-29T08:38:52;11.50;99.90
782;DHT22;374;52.568;13.402;2022-09-29T08:41:24;11.60;99.90
782;DHT22;374;52.568;13.402;2022-09-29T08:44:02;11.60;99.90
782;DHT22;374;52.568;13.402;2022-09-29T08:49:15;11.70;99.90
782;DHT22;374;52.568;13.402;2022-09-29T08:51:50;11.80;99.90
782;DHT22;374;52.568;13.402;2022-09-29T08:54:30;11.90;99.90
782;DHT22;374;52.568;13.402;2022-09-29T08:56:58;12.00;99.90
782;DHT22;374;52.568;13.402;2022-09-29T08:59:24;12.00;99.90
782;DHT22;374;52.568;13.402;2022-09-29T09:05:11;12.20;99.90
782;DHT22;374;52.568;13.402;2022-09-29T09:10:20;12.40;99.90
782;DHT22;374;52.568;13.402;2022-09-29T09:12:56;12.50;99.90
782;DHT22;374;52.568;13.402;2022-09-29T09:20:58;12.80;99.90
782;DHT22;374;52.568;13.402;2022-09-29T09:23:40;12.90;99.90
782;DHT22;374;52.568;13.402;2022-09-29T09:26:09;13.00;99.90
782;DHT22;374;52.568;13.402;2022-09-29T09:28:43;13.00;99.90
782;DHT22;374;52.568;13.402;2022-09-29T09:31:41;13.00;99.90
782;DHT22;374;52.568;13.402;2022-09-29T09:34:19;13.00;99.90
782;DHT22;374;52.568;13.402;2022-09-29T09:36:55;13.10;99.90
782;DHT22;374;52.568;13.402;2022-09-29T09:39:32;13.10;99.90
782;DHT22;374;52.568;13.402;2022-09-29T09:42:00;13.20;99.90
782;DHT22;374;52.568;13.402;2022-09-29T09:44:32;13.20;99.90
782;DHT22;374;52.568;13.402;2022-09-29T09:47:27;13.20;99.90
782;DHT22;374;52.568;13.402;2022-09-29T09:49:57;13.30;99.90
782;DHT22;374;52.568;13.402;2022-09-29T09:52:43;13.30;99.90
782;DHT22;374;52.568;13.402;2022-09-29T09:55:20;13.40;99.90
782;DHT22;374;52.568;13.402;2022-09-29T09:58:09;13.40;99.90
782;DHT22;374;52.568;13.402;2022-09-29T10:00:56;13.50;99.90
782;DHT22;374;52.568;13.402;2022-09-29T10:03:23;13.50;99.90
782;DHT22;374;52.568;13.402;2022-09-29T10:05:49;13.50;99.90
782;DHT22;374;52.568;13.402;2022-09-29T10:08:23;13.60;99.90
782;DHT22;374;52.568;13.402;2022-09-29T10:10:53;13.60;99.90
782;DHT22;374;52.568;13.402;2022-09-29T10:13:19;13.60;99.90
782;DHT22;374;52.568;13.402;2022-09-29T10:16:06;13.60;99.90
782;DHT22;374;52.568;13.402;2022-09-29T10:18:48;13.60;99.90
782;DHT22;374;52.568;13.402;2022-09-29T10:21:39;13.60;99.90
782;DHT22;374;52.568;13.402;2022-09-29T10:24:22;13.60;99.90
782;DHT22;374;52.568;13.402;2022-09-29T10:26:53;13.60;99.90
782;DHT22;374;52.568;13.402;2022-09-29T10:29:41;13.60;99.90
782;DHT22;374;52.568;13.402;2022-09-29T10:32:16;13.60;99.90
782;DHT22;374;52.568;13.402;2022-09-29T10:34:49;13.60;99.90
782;DHT22;374;52.568;13.402;2022-09-29T10:37:37;13.60;99.90
782;DHT22;374;52.568;13.402;2022-09-29T10:42:42;13.60;99.90
782;DHT22;374;52.568;13.402;2022-09-29T10:45:22;13.60;99.90
782;DHT22;374;52.568;13.402;2022-09-29T10:48:06;13.60;99.90
782;DHT22;374;52.568;13.402;2022-09-29T10:50:57;13.60;99.90
782;DHT22;374;52.568;13.402;2022-09-29T10:53:36;13.60;99.90
782;DHT22;374;52.568;13.402;2022-09-29T10:56:17;13.60;99.90
782;DHT22;374;52.568;13.402;2022-09-29T10:58:52;13.60;99.90
782;DHT22;374;52.568;13.402;2022-09-29T11:01:19;13.60;99.90
782;DHT22;374;52.568;13.402;2022-09-29T11:04:01;13.60;99.90
782;DHT22;374;52.568;13.402;2022-09-29T11:06:35;13.60;99.90
782;DHT22;374;52.568;13.402;2022-09-29T11:11:38;13.50;99.90
782;DHT22;374;52.568;13.402;2022-09-29T11:14:04;13.50;99.90
782;DHT22;374;52.568;13.402;2022-09-29T11:16:37;13.50;99.90
782;DHT22;374;52.568;13.402;2022-09-29T11:19:08;13.50;99.90
782;DHT22;374;52.568;13.402;2022-09-29T11:35:30;13.50;99.90
782;DHT22;374;52.568;13.402;2022-09-29T11:38:05;13.50;99.90
782;DHT22;374;52.568;13.402;2022-09-29T11:40:57;13.50;99.90
782;DHT22;374;52.568;13.402;2022-09-29T11:43:33;13.50;99.90
782;DHT22;374;52.568;13.402;2022-09-29T11:49:24;13.50;99.90
782;DHT22;374;52.568;13.402;2022-09-29T12:00:50;13.60;99.90
782;DHT22;374;52.568;13.402;2022-09-29T12:09:07;13.70;99.90
782;DHT22;374;52.568;13.402;2022-09-29T12:11:52;13.80;99.90
782;DHT22;374;52.568;13.402;2022-09-29T12:14:24;13.70;99.90
782;DHT22;374;52.568;13.402;2022-09-29T12:17:07;13.70;99.90
782;DHT22;374;52.568;13.402;2022-09-29T12:19:37;13.80;99.90
782;DHT22;374;52.568;13.402;2022-09-29T12:22:08;13.80;99.90
782;DHT22;374;52.568;13.402;2022-09-29T12:24:39;13.70;99.90
782;DHT22;374;52.568;13.402;2022-09-29T12:27:24;13.80;99.90
782;DHT22;374;52.568;13.402;2022-09-29T12:29:55;13.80;99.90
782;DHT22;374;52.568;13.402;2022-09-29T12:32:28;13.80;99.90
782;DHT22;374;52.568;13.402;2022-09-29T12:35:00;13.80;99.90
782;DHT22;374;52.568;13.402;2022-09-29T12:37:48;13.80;99.90
782;DHT22;374;52.568;13.402;2022-09-29T12:40:27;13.80;99.90
782;DHT22;374;52.568;13.402;2022-09-29T12:43:04;13.80;99.90
782;DHT22;374;52.568;13.402;2022-09-29T12:51:49;13.80;99.90
782;DHT22;374;52.568;13.402;2022-09-29T12:54:39;13.70;99.90
782;DHT22;374;52.568;13.402;2022-09-29T12:57:13;13.70;99.90
782;DHT22;374;52.568;13.402;2022-09-29T12:59:43;13.70;99.90
782;DHT22;374;52.568;13.402;2022-09-29T13:13:48;13.70;99.90
782;DHT22;374;52.568;13.402;2022-09-29T13:16:41;13.80;99.90
782;DHT22;374;52.568;13.402;2022-09-29T13:19:39;13.80;99.90
782;DHT22;374;52.568;13.402;2022-09-29T13:25:15;13.80;99.90
782;DHT22;374;52.568;13.402;2022-09-29T13:27:45;13.80;99.90
782;DHT22;374;52.568;13.402;2022-09-29T13:33:17;13.90;99.90
782;DHT22;374;52.568;13.402;2022-09-29T13:35:46;13.90;99.90
782;DHT22;374;52.568;13.402;2022-09-29T13:38:36;13.90;99.90
782;DHT22;374;52.568;13.402;2022-09-29T13:41:31;13.90;99.90
782;DHT22;374;52.568;13.402;2022-09-29T13:44:01;13.90;99.90
782;DHT22;374;52.568;13.402;2022-09-29T13:51:57;14.00;99.90
782;DHT22;374;52.568;13.402;2022-09-29T13:59:59;14.00;99.90
782;DHT22;374;52.568;13.402;2022-09-29T14:04:55;14.00;99.90
782;DHT22;374;52.568;13.402;2022-09-29T14:07:48;13.90;99.90
782;DHT22;374;52.568;13.402;2022-09-29T14:13:13;13.90;99.80
782;DHT22;374;52.568;13.402;2022-09-29T14:15:45;13.90;99.50
782;DHT22;374;52.568;13.402;2022-09-29T14:20:59;13.90;99.80
782;DHT22;374;52.568;13.402;2022-09-29T14:23:47;13.90;99.90
782;DHT22;374;52.568;13.402;2022-09-29T14:26:50;13.90;99.90
782;DHT22;374;52.568;13.402;2022-09-29T14:29:33;13.90;99.30
782;DHT22;374;52.568;13.402;2022-09-29T14:32:00;13.90;99.20
782;DHT22;374;52.568;13.402;2022-09-29T14:34:28;13.90;99.50
782;DHT22;374;52.568;13.402;2022-09-29T14:36:57;14.00;99.30
782;DHT22;374;52.568;13.402;2022-09-29T14:39:23;13.90;99.40
782;DHT22;374;52.568;13.402;2022-09-29T14:41:49;14.00;99.60
782;DHT22;374;52.568;13.402;2022-09-29T14:44:25;14.00;99.80
782;DHT22;374;52.568;13.402;2022-09-29T14:58:26;13.90;99.60
782;DHT22;374;52.568;13.402;2022-09-29T15:03:31;13.90;99.30
782;DHT22;374;52.568;13.402;2022-09-29T15:06:17;13.90;98.90
782;DHT22;374;52.568;13.402;2022-09-29T15:08:59;13.90;99.20
782;DHT22;374;52.568;13.402;2022-09-29T15:11:32;13.90;99.20
782;DHT22;374;52.568;13.402;2022-09-29T15:14:25;13.90;99.00
782;DHT22;374;52.568;13.402;2022-09-29T15:17:14;13.90;99.40
782;DHT22;374;52.568;13.402;2022-09-29T15:19:55;13.90;99.50
782;DHT22;374;52.568;13.402;2022-09-29T15:25:35;13.90;98.60
782;DHT22;374;52.568;13.402;2022-09-29T15:28:21;13.90;98.90
782;DHT22;374;52.568;13.402;2022-09-29T15:30:51;13.90;98.70
782;DHT22;374;52.568;13.402;2022-09-29T15:33:26;13.90;98.40
782;DHT22;374;52.568;13.402;2022-09-29T15:36:05;13.90;98.00
782;DHT22;374;52.568;13.402;2022-09-29T15:38:34;13.90;98.00
782;DHT22;374;52.568;13.402;2022-09-29T15:41:04;13.80;97.70
782;DHT22;374;52.568;13.402;2022-09-29T15:43:57;13.80;97.60
782;DHT22;374;52.568;13.402;2022-09-29T15:51:38;13.70;97.30
782;DHT22;374;52.568;13.402;2022-09-29T15:54:04;13.70;97.90
782;DHT22;374;52.568;13.402;2022-09-29T15:56:33;13.70;97.90
782;DHT22;374;52.568;13.402;2022-09-29T15:59:19;13.70;97.80
782;DHT22;374;52.568;13.402;2022-09-29T16:01:45;13.70;98.00
782;DHT22;374;52.568;13.402;2022-09-29T16:04:10;13.70;98.10
782;DHT22;374;52.568;13.402;2022-09-29T16:06:42;13.70;97.90
782;DHT22;374;52.568;13.402;2022-09-29T16:09:16;13.70;98.30
782;DHT22;374;52.568;13.402;2022-09-29T16:11:43;13.60;97.90
782;DHT22;374;52.568;13.402;2022-09-29T16:14:10;13.60;98.20
782;DHT22;374;52.568;13.402;2022-09-29T16:16:41;13.50;98.40
782;DHT22;374;52.568;13.402;2022-09-29T16:19:18;13.50;98.90
782;DHT22;374;52.568;13.402;2022-09-29T16:21:49;13.50;99.10
782;DHT22;374;52.568;13.402;2022-09-29T16:24:18;13.50;99.20
782;DHT22;374;52.568;13.402;2022-09-29T16:31:42;13.40;99.60
782;DHT22;374;52.568;13.402;2022-09-29T16:37:05;13.40;99.90
782;DHT22;374;52.568;13.402;2022-09-29T16:39:42;13.40;99.90
782;DHT22;374;52.568;13.402;2022-09-29T16:42:26;13.40;99.90
782;DHT22;374;52.568;13.402;2022-09-29T16:44:55;13.30;99.90
782;DHT22;374;52.568;13.402;2022-09-29T16:47:24;13.30;99.90
782;DHT22;374;52.568;13.402;2022-09-29T16:50:05;13.30;99.90
782;DHT22;374;52.568;13.402;2022-09-29T16:52:47;13.30;99.90
782;DHT22;374;52.568;13.402;2022-09-29T16:58:11;13.20;99.90
782;DHT22;374;52.568;13.402;2022-09-29T17:00:38;13.20;99.90
782;DHT22;374;52.568;13.402;2022-09-29T17:03:04;13.20;99.90
782;DHT22;374;52.568;13.402;2022-09-29T17:05:37;13.20;99.90
782;DHT22;374;52.568;13.402;2022-09-29T17:08:25;13.20;99.90
782;DHT22;374;52.568;13.402;2022-09-29T17:10:53;13.20;99.90
782;DHT22;374;52.568;13.402;2022-09-29T17:13:20;13.10;99.90
782;DHT22;374;52.568;13.402;2022-09-29T17:15:48;13.10;99.90
782;DHT22;374;52.568;13.402;2022-09-29T17:18:16;13.10;99.90
782;DHT22;374;52.568;13.402;2022-09-29T17:20:42;13.10;99.90
782;DHT22;374;52.568;13.402;2022-09-29T17:23:08;13.10;99.90
782;DHT22;374;52.568;13.402;2022-09-29T17:25:40;13.00;99.90
782;DHT22;374;52.568;13.402;2022-09-29T17:28:19;13.00;99.90
782;DHT22;374;52.568;13.402;2022-09-29T17:30:51;13.00;99.90
782;DHT22;374;52.568;13.402;2022-09-29T17:33:19;13.00;99.90
782;DHT22;374;52.568;13.402;2022-09-29T17:35:50;12.90;99.90
782;DHT22;374;52.568;13.402;2022-09-29T17:38:17;12.90;99.90
782;DHT22;374;52.568;13.402;2022-09-29T17:40:58;12.90;99.90
782;DHT22;374;52.568;13.402;2022-09-29T17:43:26;12.90;99.90
782;DHT22;374;52.568;13.402;2022-09-29T17:45:54;12.90;99.90
782;DHT22;374;52.568;13.402;2022-09-29T17:48:20;12.90;99.90
782;DHT22;374;52.568;13.402;2022-09-29T17:50:50;12.80;99.90
782;DHT22;374;52.568;13.402;2022-09-29T17:53:17;12.80;99.90
782;DHT22;374;52.568;13.402;2022-09-29T17:55:45;12.80;99.90
782;DHT22;374;52.568;13.402;2022-09-29T17:58:15;12.80;99.90
782;DHT22;374;52.568;13.402;2022-09-29T18:00:43;12.80;99.90
782;DHT22;374;52.568;13.402;2022-09-29T18:03:10;12.70;99.90
782;DHT22;374;52.568;13.402;2022-09-29T18:05:41;12.70;99.90
782;DHT22;374;52.568;13.402;2022-09-29T18:08:11;12.70;99.90
782;DHT22;374;52.568;13.402;2022-09-29T18:10:53;12.70;99.90
782;DHT22;374;52.568;13.402;2022-09-29T18:13:20;12.70;99.90
782;DHT22;374;52.568;13.402;2022-09-29T18:15:46;12.60;99.90
782;DHT22;374;52.568;13.402;2022-09-29T18:18:14;12.60;99.90
782;DHT22;374;52.568;13.402;2022-09-29T18:20:44;12.60;99.90
782;DHT22;374;52.568;13.402;2022-09-29T18:23:11;12.60;99.90
782;DHT22;374;52.568;13.402;2022-09-29T18:25:40;12.60;99.90
782;DHT22;374;52.568;13.402;2022-09-29T18:28:08;12.50;99.90
782;DHT22;374;52.568;13.402;2022-09-29T18:30:34;12.50;99.90
782;DHT22;374;52.568;13.402;2022-09-29T18:33:03;12.50;99.90
782;DHT22;374;52.568;13.402;2022-09-29T18:35:32;12.50;99.90
782;DHT22;374;52.568;13.402;2022-09-29T18:37:58;12.50;99.90
782;DHT22;374;52.568;13.402;2022-09-29T18:40:26;12.50;99.90
782;DHT22;374;52.568;13.402;2022-09-29T18:42:52;12.40;99.90
782;DHT22;374;52.568;13.402;2022-09-29T18:45:21;12.40;99.90
782;DHT22;374;52.568;13.402;2022-09-29T18:47:54;12.40;99.90
782;DHT22;374;52.568;13.402;2022-09-29T18:50:27;12.40;99.90
782;DHT22;374;52.568;13.402;2022-09-29T18:52:54;12.40;99.90
782;DHT22;374;52.568;13.402;2022-09-29T18:55:23;12.30;99.90
782;DHT22;374;52.568;13.402;2022-09-29T18:57:50;12.30;99.90
782;DHT22;374;52.568;13.402;2022-09-29T19:00:19;12.30;99.90
782;DHT22;374;52.568;13.402;2022-09-29T19:02:48;12.30;99.90
782;DHT22;374;52.568;13.402;2022-09-29T19:05:17;12.30;99.90
782;DHT22;374;52.568;13.402;2022-09-29T19:07:47;12.20;99.90
782;DHT22;374;52.568;13.402;2022-09-29T19:10:14;12.20;99.90
782;DHT22;374;52.568;13.402;2022-09-29T19:12:42;12.20;99.90
782;DHT22;374;52.568;13.402;2022-09-29T19:15:18;12.20;99.90
782;DHT22;374;52.568;13.402;2022-09-29T19:17:48;12.20;99.90
782;DHT22;374;52.568;13.402;2022-09-29T19:20:22;12.20;99.90
782;DHT22;374;52.568;13.402;2022-09-29T19:22:49;12.10;99.90